KBLU/BLU METAR and TAF weather

Enter ICAO airport designator
Station Type Date Time Source
KBLU METAR 2021/01/22 06:52 UTC NOAA

KBLU 220652Z AUTO 16007G15KT 10SM OVC085 03/M04 A2997 RMK AO2 SLP128 T00331044 $


Station Type Date Time Source
KBLU Decoded METAR 2021/01/22 06:52 UTC NOAA

BLUE CANYON AIRPORT, CA, United States (KBLU) 39-17N 120-42W 1609M
Jan 22, 2021 - 01:52 AM EST / 2021.01.22 0652 UTC
Wind: from the SSE (160 degrees) at 8 MPH (7 KT) gusting to 17 MPH (15 KT):0
Visibility: 10 mile(s):0
Sky conditions: overcast
Temperature: 37.9 F (3.3 C)
Dew Point: 24.1 F (-4.4 C)
Relative Humidity: 56%
Pressure (altimeter): 29.97 in. Hg (1014 hPa)
ob: KBLU 220652Z AUTO 16007G15KT 10SM OVC085 03/M04 A2997 RMK AO2 SLP128 T00331044
cycle: 7

Station Type Date Time Source
KBLU TAF UTC NOAA

Error!

Example: see airport list